sensor_id;sensor_type;location;lat;lon;timestamp;pressure;altitude;pressure_sealevel;temperature;humidity
43820;BME280;67762;52.476;6.046;2023-09-18T00:00:17;100699.88;;;17.63;100.00
43820;BME280;67762;52.476;6.046;2023-09-18T00:02:43;100699.06;;;17.62;100.00
43820;BME280;67762;52.476;6.046;2023-09-18T00:05:09;100687.19;;;17.63;100.00
43820;BME280;67762;52.476;6.046;2023-09-18T00:07:36;100670.22;;;17.63;100.00
43820;BME280;67762;52.476;6.046;2023-09-18T00:10:04;100658.34;;;17.64;100.00
43820;BME280;67762;52.476;6.046;2023-09-18T00:12:30;100656.50;;;17.64;100.00
43820;BME280;67762;52.476;6.046;2023-09-18T00:14:57;100657.72;;;17.68;100.00
43820;BME280;67762;52.476;6.046;2023-09-18T00:17:23;100649.41;;;17.70;100.00
43820;BME280;67762;52.476;6.046;2023-09-18T00:19:50;100639.22;;;17.72;100.00
43820;BME280;67762;52.476;6.046;2023-09-18T00:22:17;100627.41;;;17.73;100.00
43820;BME280;67762;52.476;6.046;2023-09-18T00:24:43;100624.94;;;17.71;100.00
43820;BME280;67762;52.476;6.046;2023-09-18T00:27:09;100621.41;;;17.71;100.00
43820;BME280;67762;52.476;6.046;2023-09-18T00:29:37;100617.25;;;17.68;100.00
43820;BME280;67762;52.476;6.046;2023-09-18T00:32:03;100619.72;;;17.70;100.00
43820;BME280;67762;52.476;6.046;2023-09-18T00:34:29;100612.47;;;17.70;100.00
43820;BME280;67762;52.476;6.046;2023-09-18T00:36:57;100612.47;;;17.70;100.00
43820;BME280;67762;52.476;6.046;2023-09-18T00:39:25;100603.53;;;17.70;100.00
43820;BME280;67762;52.476;6.046;2023-09-18T00:41:52;100593.56;;;17.70;100.00
43820;BME280;67762;52.476;6.046;2023-09-18T00:44:20;100583.38;;;17.72;100.00
43820;BME280;67762;52.476;6.046;2023-09-18T00:46:48;100574.84;;;17.75;100.00
43820;BME280;67762;52.476;6.046;2023-09-18T00:49:16;100572.56;;;17.79;100.00
43820;BME280;67762;52.476;6.046;2023-09-18T00:51:43;100570.47;;;17.81;100.00
43820;BME280;67762;52.476;6.046;2023-09-18T00:54:11;100565.91;;;17.81;100.00
43820;BME280;67762;52.476;6.046;2023-09-18T00:56:38;100567.94;;;17.86;100.00
43820;BME280;67762;52.476;6.046;2023-09-18T00:59:04;100566.91;;;17.87;100.00
43820;BME280;67762;52.476;6.046;2023-09-18T01:01:33;100563.59;;;17.85;100.00
43820;BME280;67762;52.476;6.046;2023-09-18T01:04:00;100567.56;;;17.82;100.00
43820;BME280;67762;52.476;6.046;2023-09-18T01:06:28;100563.38;;;17.86;100.00
43820;BME280;67762;52.476;6.046;2023-09-18T01:08:56;100558.97;;;17.92;100.00
43820;BME280;67762;52.476;6.046;2023-09-18T01:16:56;100533.81;;;17.98;100.00
43820;BME280;67762;52.476;6.046;2023-09-18T01:19:45;100531.31;;;17.96;100.00
43820;BME280;67762;52.476;6.046;2023-09-18T01:22:14;100534.63;;;17.98;100.00
43820;BME280;67762;52.476;6.046;2023-09-18T01:24:42;100533.81;;;17.98;100.00
43820;BME280;67762;52.476;6.046;2023-09-18T01:27:11;100526.53;;;17.98;100.00
43820;BME280;67762;52.476;6.046;2023-09-18T01:29:38;100525.72;;;17.98;100.00
43820;BME280;67762;52.476;6.046;2023-09-18T01:32:05;100520.50;;;17.96;100.00
43820;BME280;67762;52.476;6.046;2023-09-18T01:34:37;100512.41;;;17.96;100.00
43820;BME280;67762;52.476;6.046;2023-09-18T01:37:10;100512.22;;;17.98;100.00
43820;BME280;67762;52.476;6.046;2023-09-18T01:39:37;100508.47;;;17.99;100.00
43820;BME280;67762;52.476;6.046;2023-09-18T01:42:30;100488.94;;;17.97;100.00
43820;BME280;67762;52.476;6.046;2023-09-18T01:44:59;100486.03;;;17.98;100.00
43820;BME280;67762;52.476;6.046;2023-09-18T01:48:21;100482.34;;;17.93;100.00
43820;BME280;67762;52.476;6.046;2023-09-18T01:54:55;100472.38;;;17.93;100.00
43820;BME280;67762;52.476;6.046;2023-09-18T01:57:21;100457.81;;;17.94;100.00
43820;BME280;67762;52.476;6.046;2023-09-18T01:59:48;100463.81;;;17.96;100.00
43820;BME280;67762;52.476;6.046;2023-09-18T02:02:40;100461.13;;;17.96;100.00
43820;BME280;67762;52.476;6.046;2023-09-18T02:05:11;100467.16;;;17.98;100.00
43820;BME280;67762;52.476;6.046;2023-09-18T02:11:47;100441.19;;;17.97;100.00
43820;BME280;67762;52.476;6.046;2023-09-18T02:14:18;100436.78;;;18.03;100.00
43820;BME280;67762;52.476;6.046;2023-09-18T02:16:44;100429.50;;;18.03;100.00
43820;BME280;67762;52.476;6.046;2023-09-18T02:19:13;100424.94;;;18.04;100.00
43820;BME280;67762;52.476;6.046;2023-09-18T02:21:42;100424.69;;;18.05;100.00
43820;BME280;67762;52.476;6.046;2023-09-18T02:24:10;100419.94;;;18.07;100.00
43820;BME280;67762;52.476;6.046;2023-09-18T02:26:36;100415.31;;;18.08;100.00
43820;BME280;67762;52.476;6.046;2023-09-18T02:29:29;100413.69;;;18.07;100.00
43820;BME280;67762;52.476;6.046;2023-09-18T02:39:56;100418.47;;;18.05;100.00
43820;BME280;67762;52.476;6.046;2023-09-18T02:47:17;100421.63;;;18.02;100.00
43820;BME280;67762;52.476;6.046;2023-09-18T02:50:33;100412.63;;;18.08;100.00
43820;BME280;67762;52.476;6.046;2023-09-18T03:02:13;100380.09;;;18.21;100.00
43820;BME280;67762;52.476;6.046;2023-09-18T03:04:41;100367.19;;;18.23;100.00
43820;BME280;67762;52.476;6.046;2023-09-18T03:07:07;100356.41;;;18.23;100.00
43820;BME280;67762;52.476;6.046;2023-09-18T03:09:32;100352.66;;;18.24;100.00
43820;BME280;67762;52.476;6.046;2023-09-18T03:11:58;100339.16;;;18.24;100.00
43820;BME280;67762;52.476;6.046;2023-09-18T03:14:24;100341.63;;;18.26;100.00
43820;BME280;67762;52.476;6.046;2023-09-18T03:16:50;100334.34;;;18.26;100.00
43820;BME280;67762;52.476;6.046;2023-09-18T03:19:16;100335.97;;;18.27;100.00
43820;BME280;67762;52.476;6.046;2023-09-18T03:21:43;100318.72;;;18.28;100.00
43820;BME280;67762;52.476;6.046;2023-09-18T03:24:08;100310.63;;;18.28;100.00
43820;BME280;67762;52.476;6.046;2023-09-18T03:26:34;100302.53;;;18.28;100.00
43820;BME280;67762;52.476;6.046;2023-09-18T03:29:00;100286.31;;;18.28;100.00
43820;BME280;67762;52.476;6.046;2023-09-18T03:31:27;100253.91;;;18.28;100.00
43820;BME280;67762;52.476;6.046;2023-09-18T03:33:52;100251.78;;;18.30;100.00
43820;BME280;67762;52.476;6.046;2023-09-18T03:36:21;100247.22;;;18.31;100.00
43820;BME280;67762;52.476;6.046;2023-09-18T03:38:47;100234.09;;;18.34;100.00
43820;BME280;67762;52.476;6.046;2023-09-18T03:41:14;100241.75;;;18.37;100.00
43820;BME280;67762;52.476;6.046;2023-09-18T03:43:39;100238.47;;;18.35;100.00
43820;BME280;67762;52.476;6.046;2023-09-18T03:46:06;100232.22;;;18.35;100.00
43820;BME280;67762;52.476;6.046;2023-09-18T03:48:38;100237.63;;;18.35;100.00
43820;BME280;67762;52.476;6.046;2023-09-18T03:51:04;100225.16;;;18.34;100.00
43820;BME280;67762;52.476;6.046;2023-09-18T03:53:35;100223.50;;;18.33;100.00
43820;BME280;67762;52.476;6.046;2023-09-18T03:56:01;100235.75;;;18.35;100.00
43820;BME280;67762;52.476;6.046;2023-09-18T03:58:27;100226.59;;;18.36;100.00
43820;BME280;67762;52.476;6.046;2023-09-18T04:00:55;100225.28;;;18.39;100.00
43820;BME280;67762;52.476;6.046;2023-09-18T04:03:21;100221.94;;;18.43;100.00
43820;BME280;67762;52.476;6.046;2023-09-18T04:05:47;100211.03;;;18.50;100.00
43820;BME280;67762;52.476;6.046;2023-09-18T04:08:13;100209.53;;;18.54;100.00
43820;BME280;67762;52.476;6.046;2023-09-18T04:10:55;100208.84;;;18.58;100.00
43820;BME280;67762;52.476;6.046;2023-09-18T04:13:24;100206.88;;;18.65;100.00
43820;BME280;67762;52.476;6.046;2023-09-18T04:16:40;100197.00;;;18.71;100.00
43820;BME280;67762;52.476;6.046;2023-09-18T04:24:08;100198.28;;;18.80;100.00
43820;BME280;67762;52.476;6.046;2023-09-18T04:27:24;100198.19;;;18.87;100.00
43820;BME280;67762;52.476;6.046;2023-09-18T05:15:51;100133.50;;;19.55;100.00
43820;BME280;67762;52.476;6.046;2023-09-18T05:18:17;100135.16;;;19.56;100.00
43820;BME280;67762;52.476;6.046;2023-09-18T05:20:43;100151.38;;;19.56;100.00
43820;BME280;67762;52.476;6.046;2023-09-18T05:23:08;100152.94;;;19.52;100.00
43820;BME280;67762;52.476;6.046;2023-09-18T05:25:34;100168.00;;;19.48;100.00
43820;BME280;67762;52.476;6.046;2023-09-18T05:28:04;100168.72;;;19.43;100.00
43820;BME280;67762;52.476;6.046;2023-09-18T05:30:33;100182.25;;;19.43;100.00
43820;BME280;67762;52.476;6.046;2023-09-18T05:33:05;100187.19;;;19.46;100.00
43820;BME280;67762;52.476;6.046;2023-09-18T05:35:36;100190.22;;;19.50;100.00
43820;BME280;67762;52.476;6.046;2023-09-18T05:38:02;100194.09;;;19.54;100.00
43820;BME280;67762;52.476;6.046;2023-09-18T05:40:28;100203.38;;;19.58;100.00
43820;BME280;67762;52.476;6.046;2023-09-18T05:42:55;100201.03;;;19.61;100.00
43820;BME280;67762;52.476;6.046;2023-09-18T05:45:22;100211.38;;;19.64;100.00
43820;BME280;67762;52.476;6.046;2023-09-18T05:47:48;100214.91;;;19.65;100.00
43820;BME280;67762;52.476;6.046;2023-09-18T05:50:16;100229.03;;;19.67;100.00
43820;BME280;67762;52.476;6.046;2023-09-18T05:52:46;100205.50;;;19.67;100.00
43820;BME280;67762;52.476;6.046;2023-09-18T05:55:14;100205.00;;;19.70;100.00
43820;BME280;67762;52.476;6.046;2023-09-18T05:57:40;100205.59;;;19.72;100.00
43820;BME280;67762;52.476;6.046;2023-09-18T06:00:07;100187.00;;;19.76;100.00
43820;BME280;67762;52.476;6.046;2023-09-18T06:02:39;100183.00;;;19.78;100.00
43820;BME280;67762;52.476;6.046;2023-09-18T06:05:06;100184.63;;;19.79;100.00
43820;BME280;67762;52.476;6.046;2023-09-18T06:07:32;100176.75;;;19.78;100.00
43820;BME280;67762;52.476;6.046;2023-09-18T06:09:58;100189.13;;;19.74;100.00
43820;BME280;67762;52.476;6.046;2023-09-18T06:12:24;100190.09;;;19.68;100.00
43820;BME280;67762;52.476;6.046;2023-09-18T06:14:50;100182.81;;;19.45;100.00
43820;BME280;67762;52.476;6.046;2023-09-18T06:17:17;100206.09;;;19.11;100.00
43820;BME280;67762;52.476;6.046;2023-09-18T06:19:44;100205.84;;;18.90;100.00
43820;BME280;67762;52.476;6.046;2023-09-18T06:22:10;100190.19;;;18.80;100.00
43820;BME280;67762;52.476;6.046;2023-09-18T06:24:36;100183.63;;;18.76;100.00
43820;BME280;67762;52.476;6.046;2023-09-18T06:27:03;100164.13;;;18.74;100.00
43820;BME280;67762;52.476;6.046;2023-09-18T06:29:32;100170.94;;;18.77;100.00
43820;BME280;67762;52.476;6.046;2023-09-18T06:31:58;100173.38;;;18.78;100.00
43820;BME280;67762;52.476;6.046;2023-09-18T06:34:24;100183.16;;;18.79;100.00
43820;BME280;67762;52.476;6.046;2023-09-18T06:36:50;100190.44;;;18.79;100.00
43820;BME280;67762;52.476;6.046;2023-09-18T06:39:16;100190.44;;;18.79;100.00
43820;BME280;67762;52.476;6.046;2023-09-18T06:41:42;100188.78;;;18.78;100.00
43820;BME280;67762;52.476;6.046;2023-09-18T06:44:11;100190.44;;;18.79;100.00
43820;BME280;67762;52.476;6.046;2023-09-18T06:46:36;100189.38;;;18.80;100.00
43820;BME280;67762;52.476;6.046;2023-09-18T06:49:02;100177.50;;;18.81;100.00
43820;BME280;67762;52.476;6.046;2023-09-18T06:51:29;100184.94;;;18.85;100.00
43820;BME280;67762;52.476;6.046;2023-09-18T06:53:54;100206.88;;;18.89;100.00
43820;BME280;67762;52.476;6.046;2023-09-18T06:56:25;100202.88;;;18.91;100.00
43820;BME280;67762;52.476;6.046;2023-09-18T06:58:51;100214.91;;;18.95;100.00
43820;BME280;67762;52.476;6.046;2023-09-18T07:01:18;100231.72;;;18.97;100.00
43820;BME280;67762;52.476;6.046;2023-09-18T07:03:46;100231.72;;;18.97;100.00
43820;BME280;67762;52.476;6.046;2023-09-18T07:06:13;100243.59;;;18.96;100.00
43820;BME280;67762;52.476;6.046;2023-09-18T07:08:43;100246.97;;;18.92;100.00
43820;BME280;67762;52.476;6.046;2023-09-18T07:11:09;100241.19;;;18.88;100.00
43820;BME280;67762;52.476;6.046;2023-09-18T07:13:34;100248.97;;;18.85;100.00
43820;BME280;67762;52.476;6.046;2023-09-18T07:16:00;100232.38;;;18.81;100.00
43820;BME280;67762;52.476;6.046;2023-09-18T07:18:26;100228.84;;;18.81;100.00
43820;BME280;67762;52.476;6.046;2023-09-18T07:20:51;100226.72;;;18.83;100.00
43820;BME280;67762;52.476;6.046;2023-09-18T07:23:17;100220.66;;;18.87;100.00
43820;BME280;67762;52.476;6.046;2023-09-18T07:25:43;100217.47;;;18.90;100.00
43820;BME280;67762;52.476;6.046;2023-09-18T07:28:09;100216.31;;;18.98;100.00
43820;BME280;67762;52.476;6.046;2023-09-18T07:30:41;100213.50;;;19.04;100.00
43820;BME280;67762;52.476;6.046;2023-09-18T07:33:07;100222.78;;;19.08;100.00
43820;BME280;67762;52.476;6.046;2023-09-18T07:35:32;100222.09;;;19.13;100.00
43820;BME280;67762;52.476;6.046;2023-09-18T07:37:58;100209.28;;;19.20;100.00
43820;BME280;67762;52.476;6.046;2023-09-18T07:40:24;100210.78;;;19.27;100.00
43820;BME280;67762;52.476;6.046;2023-09-18T07:42:49;100215.84;;;19.36;100.00
43820;BME280;67762;52.476;6.046;2023-09-18T07:45:15;100218.00;;;19.45;100.00
43820;BME280;67762;52.476;6.046;2023-09-18T07:47:41;100215.50;;;19.55;100.00
43820;BME280;67762;52.476;6.046;2023-09-18T07:50:07;100211.38;;;19.64;100.00
43820;BME280;67762;52.476;6.046;2023-09-18T07:52:32;100213.34;;;19.69;100.00
43820;BME280;67762;52.476;6.046;2023-09-18T07:54:58;100211.00;;;19.72;100.00
43820;BME280;67762;52.476;6.046;2023-09-18T07:57:24;100208.88;;;19.74;100.00
43820;BME280;67762;52.476;6.046;2023-09-18T07:59:51;100193.81;;;19.78;100.00
43820;BME280;67762;52.476;6.046;2023-09-18T08:02:16;100202.28;;;19.82;100.00
43820;BME280;67762;52.476;6.046;2023-09-18T08:04:43;100206.72;;;19.88;100.00
43820;BME280;67762;52.476;6.046;2023-09-18T08:07:09;100216.84;;;19.93;100.00
43820;BME280;67762;52.476;6.046;2023-09-18T08:09:34;100224.50;;;19.96;100.00
43820;BME280;67762;52.476;6.046;2023-09-18T08:12:05;100213.19;;;19.99;100.00
43820;BME280;67762;52.476;6.046;2023-09-18T08:14:31;100227.97;;;20.08;100.00
43820;BME280;67762;52.476;6.046;2023-09-18T08:17:00;100229.16;;;20.12;100.00
43820;BME280;67762;52.476;6.046;2023-09-18T08:19:26;100220.53;;;20.15;100.00
43820;BME280;67762;52.476;6.046;2023-09-18T08:21:55;100209.94;;;20.13;100.00
43820;BME280;67762;52.476;6.046;2023-09-18T08:24:25;100229.16;;;20.12;100.00
43820;BME280;67762;52.476;6.046;2023-09-18T08:26:51;100231.88;;;20.12;100.00
43820;BME280;67762;52.476;6.046;2023-09-18T08:29:18;100243.75;;;20.11;100.00
43820;BME280;67762;52.476;6.046;2023-09-18T08:31:43;100241.66;;;20.13;100.00
43820;BME280;67762;52.476;6.046;2023-09-18T08:34:09;100234.91;;;20.15;100.00
43820;BME280;67762;52.476;6.046;2023-09-18T08:36:35;100234.19;;;20.20;100.00
43820;BME280;67762;52.476;6.046;2023-09-18T08:39:00;100232.31;;;20.20;100.00
43820;BME280;67762;52.476;6.046;2023-09-18T08:41:28;100235.84;;;20.21;100.00
43820;BME280;67762;52.476;6.046;2023-09-18T08:44:00;100232.03;;;20.22;100.00
43820;BME280;67762;52.476;6.046;2023-09-18T08:46:27;100235.13;;;20.25;100.00
43820;BME280;67762;52.476;6.046;2023-09-18T08:48:54;100233.09;;;20.32;100.00
43820;BME280;67762;52.476;6.046;2023-09-18T08:51:21;100227.78;;;20.37;100.00
43820;BME280;67762;52.476;6.046;2023-09-18T08:53:47;100225.19;;;20.42;100.00
43820;BME280;67762;52.476;6.046;2023-09-18T08:56:13;100239.38;;;20.50;100.00
43820;BME280;67762;52.476;6.046;2023-09-18T08:58:39;100244.66;;;20.56;100.00
43820;BME280;67762;52.476;6.046;2023-09-18T09:01:11;100246.41;;;20.62;100.00
43820;BME280;67762;52.476;6.046;2023-09-18T09:03:41;100243.41;;;21.25;100.00
43820;BME280;67762;52.476;6.046;2023-09-18T09:06:13;100242.66;;;22.28;100.00
43820;BME280;67762;52.476;6.046;2023-09-18T09:08:39;100253.66;;;21.95;97.70
43820;BME280;67762;52.476;6.046;2023-09-18T09:11:05;100255.72;;;21.49;97.67
43820;BME280;67762;52.476;6.046;2023-09-18T09:13:31;100269.50;;;21.26;98.97
43820;BME280;67762;52.476;6.046;2023-09-18T09:15:58;100255.75;;;21.16;99.05
43820;BME280;67762;52.476;6.046;2023-09-18T09:18:26;100265.59;;;21.06;98.70
43820;BME280;67762;52.476;6.046;2023-09-18T09:20:57;100275.53;;;21.00;98.97
43820;BME280;67762;52.476;6.046;2023-09-18T09:23:29;100266.31;;;21.13;99.41
43820;BME280;67762;52.476;6.046;2023-09-18T09:26:13;100270.88;;;21.45;98.76
43820;BME280;67762;52.476;6.046;2023-09-18T09:28:39;100263.19;;;21.59;95.43
43820;BME280;67762;52.476;6.046;2023-09-18T09:31:05;100279.50;;;21.42;94.01
43820;BME280;67762;52.476;6.046;2023-09-18T09:33:31;100273.31;;;21.47;95.10
43820;BME280;67762;52.476;6.046;2023-09-18T09:35:57;100272.34;;;21.53;95.09
43820;BME280;67762;52.476;6.046;2023-09-18T09:38:30;100265.75;;;21.66;94.06
43820;BME280;67762;52.476;6.046;2023-09-18T09:40:57;100278.25;;;22.05;92.05
43820;BME280;67762;52.476;6.046;2023-09-18T09:43:25;100281.34;;;21.92;90.61
43820;BME280;67762;52.476;6.046;2023-09-18T09:46:02;100287.94;;;21.79;90.59
43820;BME280;67762;52.476;6.046;2023-09-18T09:48:28;100282.34;;;21.69;91.13
43820;BME280;67762;52.476;6.046;2023-09-18T09:50:59;100290.50;;;21.69;92.07
43820;BME280;67762;52.476;6.046;2023-09-18T09:53:47;100287.81;;;22.29;89.87
43820;BME280;67762;52.476;6.046;2023-09-18T09:56:14;100282.72;;;22.86;84.68
43820;BME280;67762;52.476;6.046;2023-09-18T09:58:40;100279.19;;;23.49;81.86
43820;BME280;67762;52.476;6.046;2023-09-18T10:01:12;100280.44;;;24.20;78.79
43820;BME280;67762;52.476;6.046;2023-09-18T10:03:43;100284.38;;;24.70;75.93
43820;BME280;67762;52.476;6.046;2023-09-18T10:06:10;100284.44;;;25.05;73.17
43820;BME280;67762;52.476;6.046;2023-09-18T10:08:38;100280.38;;;25.23;70.91
43820;BME280;67762;52.476;6.046;2023-09-18T10:11:09;100300.22;;;24.73;70.71
43820;BME280;67762;52.476;6.046;2023-09-18T10:13:58;100296.03;;;24.40;72.17
43820;BME280;67762;52.476;6.046;2023-09-18T10:16:26;100292.78;;;24.48;71.52
43820;BME280;67762;52.476;6.046;2023-09-18T10:21:56;100300.91;;;24.33;71.47
43820;BME280;67762;52.476;6.046;2023-09-18T10:24:28;100290.88;;;23.92;71.35
43820;BME280;67762;52.476;6.046;2023-09-18T10:27:01;100293.88;;;23.85;71.90
43820;BME280;67762;52.476;6.046;2023-09-18T10:29:31;100281.75;;;23.29;72.78
43820;BME280;67762;52.476;6.046;2023-09-18T10:31:58;100294.44;;;23.18;73.41
43820;BME280;67762;52.476;6.046;2023-09-18T10:34:24;100292.84;;;23.22;73.03
43820;BME280;67762;52.476;6.046;2023-09-18T10:36:54;100293.53;;;23.08;73.50
43820;BME280;67762;52.476;6.046;2023-09-18T10:39:21;100289.19;;;22.80;73.25
43820;BME280;67762;52.476;6.046;2023-09-18T10:42:00;100299.31;;;22.63;73.89
43820;BME280;67762;52.476;6.046;2023-09-18T10:44:28;100310.91;;;22.53;74.97
43820;BME280;67762;52.476;6.046;2023-09-18T10:46:54;100324.06;;;22.40;74.94
43820;BME280;67762;52.476;6.046;2023-09-18T10:49:21;100320.97;;;22.31;75.84
43820;BME280;67762;52.476;6.046;2023-09-18T10:51:48;100324.63;;;22.63;75.62
43820;BME280;67762;52.476;6.046;2023-09-18T10:54:20;100322.97;;;22.62;75.93
43820;BME280;67762;52.476;6.046;2023-09-18T10:56:46;100314.34;;;22.65;75.91
43820;BME280;67762;52.476;6.046;2023-09-18T10:59:14;100320.44;;;22.78;76.12
43820;BME280;67762;52.476;6.046;2023-09-18T11:01:40;100304.47;;;22.59;76.31
43820;BME280;67762;52.476;6.046;2023-09-18T11:04:07;100319.59;;;22.07;79.75
43820;BME280;67762;52.476;6.046;2023-09-18T11:09:23;100315.44;;;21.16;84.83
43820;BME280;67762;52.476;6.046;2023-09-18T11:11:53;100314.31;;;21.12;85.27
43820;BME280;67762;52.476;6.046;2023-09-18T11:14:57;100308.63;;;21.14;85.47
43820;BME280;67762;52.476;6.046;2023-09-18T11:20:08;100308.41;;;21.32;84.77
43820;BME280;67762;52.476;6.046;2023-09-18T11:22:39;100303.75;;;21.66;84.41
43820;BME280;67762;52.476;6.046;2023-09-18T11:25:45;100303.28;;;22.29;81.86
43820;BME280;67762;52.476;6.046;2023-09-18T11:28:26;100308.22;;;23.75;77.16
43820;BME280;67762;52.476;6.046;2023-09-18T11:30:55;100313.66;;;24.79;72.14
43820;BME280;67762;52.476;6.046;2023-09-18T11:38:31;100306.16;;;23.93;71.92
43820;BME280;67762;52.476;6.046;2023-09-18T11:41:00;100293.28;;;23.41;73.01
43820;BME280;67762;52.476;6.046;2023-09-18T11:43:28;100299.56;;;23.10;74.83
43820;BME280;67762;52.476;6.046;2023-09-18T11:45:58;100291.84;;;23.65;75.50
43820;BME280;67762;52.476;6.046;2023-09-18T11:48:26;100284.47;;;24.85;71.82
43820;BME280;67762;52.476;6.046;2023-09-18T11:50:59;100281.97;;;25.69;68.86
43820;BME280;67762;52.476;6.046;2023-09-18T11:53:27;100285.00;;;25.68;66.59
43820;BME280;67762;52.476;6.046;2023-09-18T11:55:53;100293.72;;;25.75;65.73
43820;BME280;67762;52.476;6.046;2023-09-18T11:58:19;100286.63;;;25.64;66.09
43820;BME280;67762;52.476;6.046;2023-09-18T12:00:49;100296.22;;;25.56;65.84
43820;BME280;67762;52.476;6.046;2023-09-18T12:03:20;100279.53;;;25.32;63.75
43820;BME280;67762;52.476;6.046;2023-09-18T12:06:01;100294.22;;;24.76;64.49
43820;BME280;67762;52.476;6.046;2023-09-18T12:08:28;100293.63;;;24.49;65.47
43820;BME280;67762;52.476;6.046;2023-09-18T12:10:59;100300.84;;;24.13;66.06
43820;BME280;67762;52.476;6.046;2023-09-18T12:13:25;100288.03;;;23.71;66.18
43820;BME280;67762;52.476;6.046;2023-09-18T12:15:59;100288.84;;;24.19;66.72
43820;BME280;67762;52.476;6.046;2023-09-18T12:18:27;100295.59;;;24.78;65.43
43820;BME280;67762;52.476;6.046;2023-09-18T12:20:56;100281.72;;;24.95;62.95
43820;BME280;67762;52.476;6.046;2023-09-18T12:23:22;100298.81;;;24.55;62.26
43820;BME280;67762;52.476;6.046;2023-09-18T12:26:00;100296.13;;;24.70;60.92
43820;BME280;67762;52.476;6.046;2023-09-18T12:28:27;100286.28;;;23.97;62.60
43820;BME280;67762;52.476;6.046;2023-09-18T12:30:58;100292.63;;;23.66;63.73
43820;BME280;67762;52.476;6.046;2023-09-18T12:33:24;100289.59;;;24.76;63.35
43820;BME280;67762;52.476;6.046;2023-09-18T12:35:50;100284.72;;;25.49;60.78
43820;BME280;67762;52.476;6.046;2023-09-18T12:38:18;100287.13;;;25.81;59.43
43820;BME280;67762;52.476;6.046;2023-09-18T12:40:48;100280.19;;;26.19;58.88
43820;BME280;67762;52.476;6.046;2023-09-18T12:43:15;100273.78;;;26.48;57.50
43820;BME280;67762;52.476;6.046;2023-09-18T12:45:42;100284.28;;;26.26;57.44
43820;BME280;67762;52.476;6.046;2023-09-18T12:48:09;100274.91;;;26.42;57.22
43820;BME280;67762;52.476;6.046;2023-09-18T12:50:35;100284.44;;;25.76;56.04
43820;BME280;67762;52.476;6.046;2023-09-18T12:53:11;100270.69;;;26.01;55.97
43820;BME280;67762;52.476;6.046;2023-09-18T12:55:38;100276.13;;;26.21;54.86
43820;BME280;67762;52.476;6.046;2023-09-18T12:58:04;100263.50;;;26.25;55.62
43820;BME280;67762;52.476;6.046;2023-09-18T13:00:34;100259.78;;;26.99;54.59
43820;BME280;67762;52.476;6.046;2023-09-18T13:03:02;100253.53;;;26.93;53.42
43820;BME280;67762;52.476;6.046;2023-09-18T13:05:30;100261.91;;;26.14;54.38
43820;BME280;67762;52.476;6.046;2023-09-18T13:08:02;100255.00;;;25.12;56.81
43820;BME280;67762;52.476;6.046;2023-09-18T13:10:28;100247.81;;;24.61;58.74
43820;BME280;67762;52.476;6.046;2023-09-18T13:12:54;100251.09;;;24.78;59.58
43820;BME280;67762;52.476;6.046;2023-09-18T13:17:52;100243.22;;;25.37;57.74
43820;BME280;67762;52.476;6.046;2023-09-18T13:20:23;100222.31;;;25.91;55.19
43820;BME280;67762;52.476;6.046;2023-09-18T13:23:00;100225.16;;;26.30;54.58
43820;BME280;67762;52.476;6.046;2023-09-18T13:25:31;100227.78;;;26.50;53.98
43820;BME280;67762;52.476;6.046;2023-09-18T13:27:59;100216.84;;;26.50;53.08
43820;BME280;67762;52.476;6.046;2023-09-18T13:30:26;100225.53;;;26.13;53.37
43820;BME280;67762;52.476;6.046;2023-09-18T13:33:01;100229.03;;;25.35;55.28
43820;BME280;67762;52.476;6.046;2023-09-18T13:35:27;100229.88;;;24.90;58.07
43820;BME280;67762;52.476;6.046;2023-09-18T13:37:53;100227.63;;;24.72;57.95
43820;BME280;67762;52.476;6.046;2023-09-18T13:40:18;100229.84;;;24.80;59.19
43820;BME280;67762;52.476;6.046;2023-09-18T13:42:44;100232.72;;;25.89;56.84
43820;BME280;67762;52.476;6.046;2023-09-18T13:45:10;100220.22;;;26.37;54.56
43820;BME280;67762;52.476;6.046;2023-09-18T13:47:36;100223.38;;;26.59;53.85
43820;BME280;67762;52.476;6.046;2023-09-18T13:50:04;100218.31;;;26.71;52.25
43820;BME280;67762;52.476;6.046;2023-09-18T13:52:31;100221.06;;;26.77;51.52
43820;BME280;67762;52.476;6.046;2023-09-18T13:54:57;100217.75;;;26.36;50.72
43820;BME280;67762;52.476;6.046;2023-09-18T13:57:23;100218.41;;;26.18;51.04
43820;BME280;67762;52.476;6.046;2023-09-18T13:59:50;100198.88;;;26.39;51.44
43820;BME280;67762;52.476;6.046;2023-09-18T14:02:16;100204.19;;;26.98;50.75
43820;BME280;67762;52.476;6.046;2023-09-18T14:04:42;100190.84;;;27.20;49.87
43820;BME280;67762;52.476;6.046;2023-09-18T14:07:09;100181.41;;;27.32;49.28
43820;BME280;67762;52.476;6.046;2023-09-18T14:09:37;100192.25;;;27.18;49.38
43820;BME280;67762;52.476;6.046;2023-09-18T14:12:03;100191.84;;;27.01;49.99
43820;BME280;67762;52.476;6.046;2023-09-18T14:14:29;100187.84;;;26.54;50.67
43820;BME280;67762;52.476;6.046;2023-09-18T14:16:54;100184.97;;;26.69;51.18
43820;BME280;67762;52.476;6.046;2023-09-18T14:19:21;100189.28;;;26.81;50.84
43820;BME280;67762;52.476;6.046;2023-09-18T14:21:46;100176.53;;;27.00;50.58
43820;BME280;67762;52.476;6.046;2023-09-18T14:24:15;100181.38;;;27.08;49.92
43820;BME280;67762;52.476;6.046;2023-09-18T14:26:48;100179.88;;;26.53;50.40
43820;BME280;67762;52.476;6.046;2023-09-18T14:29:14;100146.28;;;26.47;50.36
43820;BME280;67762;52.476;6.046;2023-09-18T14:31:40;100140.97;;;26.61;50.71
43820;BME280;67762;52.476;6.046;2023-09-18T14:34:06;100144.78;;;26.65;50.05